Terminal Aerodrome Forecast
Issued by NWS Brownsville, TX

Current Version | Previous Version | Text Only | Print | Product List | Glossary Off
Versions: 1 2 3 4 5 6 7 8 9 10 11 12 13 14 15 16

000
FTUS44 KBRO 262335
TAFMFE
TAF
KMFE 262335Z 2700/2724 10014G20KT P6SM SCT050
     FM270200 11010KT P6SM FEW060
     FM270400 VRB04KT P6SM SCT020
     FM271800 08014KT P6SM SCT050=

USA.gov is the U.S. government's official web portal to all federal, state and local government web resources and services.